Tulsa, Oklahoma
Current Conditions -  °F | °C
As of 6:53 AM on Friday 28 Nov 2014 (Local Time) from KTUL Reporting Station
Clear Clear  
Wind Chill: 33°   Ceiling: Unl
Heat Index: 42°   Visibility: 10mi
Dew Point: 27°   Wind: 20mph
Humidity: 55%   Direction: 180°S
Pressure: 30.13"   Gusts: 29mph
Location:  36.15°N, 95.99°W
Report Text: KTUL 281253Z 18017G25KT 10SM CLR 06/M03 A3013 RMK AO2 SLP205 T00561028
Loading
Personal Weather Stations






























Interactive Weather Map New forecast layout! Learn more

10-Day Weather Forecast

Advertisements
Track Severe Weather on mobile